Time;durP1;ratioP1;P1;durP2;ratioP2;P2;SDS_P1;SDS_P2;PMS_P1;PMS_P2;Temp;Humidity;BMP_temperature;BMP_pressure;BME280_temperature;BME280_humidity;BME280_pressure;Samples;Min_cycle;Max_cycle;Signal;HPM_P1;HPM_P2
2021/05/20 00:00:58;;;;;;;1.77;1.27;;;10.50;99.90;;;;;;5123403;28;20206;-84
2021/05/20 00:03:24;;;;;;;1.42;1.33;;;10.50;99.90;;;;;;5122590;28;20482;-85
2021/05/20 00:05:51;;;;;;;1.33;1.23;;;10.50;99.90;;;;;;5123201;28;20206;-81
2021/05/20 00:08:17;;;;;;;2.23;1.20;;;10.50;99.90;;;;;;5123328;28;20296;-82
2021/05/20 00:10:43;;;;;;;2.30;1.47;;;10.50;99.90;;;;;;5124291;28;20471;-84
2021/05/20 00:13:10;;;;;;;2.97;1.43;;;10.40;99.90;;;;;;5127165;28;20445;-81
2021/05/20 00:15:37;;;;;;;1.03;0.93;;;10.50;99.90;;;;;;5127425;28;20564;-84
2021/05/20 00:18:03;;;;;;;2.73;2.07;;;10.50;99.90;;;;;;5127855;28;20448;-83
2021/05/20 00:20:30;;;;;;;4.10;1.80;;;10.50;99.90;;;;;;5126728;28;20833;-84
2021/05/20 00:22:56;;;;;;;1.50;1.07;;;10.60;99.90;;;;;;5126474;28;20452;-84
2021/05/20 00:25:22;;;;;;;2.53;2.27;;;10.60;99.90;;;;;;5127298;28;20471;-84
2021/05/20 00:27:48;;;;;;;1.80;1.70;;;10.50;99.90;;;;;;5127016;28;20516;-84
2021/05/20 00:30:15;;;;;;;1.30;1.20;;;10.50;99.90;;;;;;5126573;28;20481;-84
2021/05/20 00:32:42;;;;;;;1.10;1.10;;;10.50;99.90;;;;;;5126324;28;20450;-84
2021/05/20 00:35:09;;;;;;;1.37;1.20;;;10.40;99.90;;;;;;5126971;28;21047;-84
2021/05/20 00:37:36;;;;;;;1.50;1.40;;;10.40;99.90;;;;;;5126406;28;20451;-83
2021/05/20 00:40:03;;;;;;;1.43;1.30;;;10.40;99.90;;;;;;5126276;28;20482;-84
2021/05/20 00:42:29;;;;;;;2.45;1.45;;;10.30;99.90;;;;;;5126125;28;20451;-84
2021/05/20 00:44:57;;;;;;;1.17;1.17;;;10.30;99.90;;;;;;5126690;28;20230;-82
2021/05/20 00:47:26;;;;;;;3.43;1.50;;;10.30;99.90;;;;;;5127398;28;20213;-82
2021/05/20 00:49:54;;;;;;;1.02;0.93;;;10.20;99.90;;;;;;5126029;28;20465;-85
2021/05/20 00:52:20;;;;;;;1.00;1.00;;;10.20;99.90;;;;;;5126610;28;20215;-82
2021/05/20 00:54:50;;;;;;;1.07;0.90;;;10.20;99.90;;;;;;5126383;28;20829;-84
2021/05/20 01:31:46;;;;;;;1.33;1.10;;;10.10;99.90;;;;;;4859602;29;20258;-87
2021/05/20 01:40:57;;;;;;;1.38;1.27;;;9.70;99.90;;;;;;4946691;28;20603;-86
2021/05/20 01:43:25;;;;;;;1.48;1.38;;;9.70;99.90;;;;;;5049667;28;20276;-87
2021/05/20 01:45:57;;;;;;;1.40;1.30;;;9.70;99.90;;;;;;5054392;28;20209;-86
2021/05/20 01:48:23;;;;;;;1.63;1.10;;;9.60;99.90;;;;;;5053964;28;20227;-87
2021/05/20 01:50:49;;;;;;;1.13;1.00;;;9.70;99.90;;;;;;5054063;28;20204;-86
2021/05/20 01:53:17;;;;;;;1.70;1.60;;;9.60;99.90;;;;;;5053983;28;20203;-87
2021/05/20 01:55:43;;;;;;;1.45;1.42;;;9.50;99.90;;;;;;5053825;28;20211;-87
2021/05/20 01:58:09;;;;;;;1.70;1.60;;;9.50;99.90;;;;;;5053753;28;20239;-86
2021/05/20 02:00:35;;;;;;;1.42;1.27;;;9.50;99.90;;;;;;5053794;28;20205;-86
2021/05/20 02:03:02;;;;;;;2.78;2.08;;;9.50;99.90;;;;;;5053586;28;20208;-86
2021/05/20 02:05:28;;;;;;;1.40;1.38;;;9.30;99.90;;;;;;5053677;28;20239;-87
2021/05/20 02:07:54;;;;;;;2.25;1.52;;;9.30;99.90;;;;;;5053930;28;20234;-86
2021/05/20 02:10:22;;;;;;;1.63;1.45;;;9.20;99.90;;;;;;5053698;28;20203;-86
2021/05/20 02:12:48;;;;;;;1.67;1.58;;;9.10;99.90;;;;;;5053705;28;20279;-86
2021/05/20 02:15:14;;;;;;;1.30;1.20;;;9.00;99.90;;;;;;5053470;28;20203;-86
2021/05/20 02:17:41;;;;;;;1.35;1.35;;;8.90;99.90;;;;;;5053518;28;20235;-86
2021/05/20 02:20:08;;;;;;;2.58;1.65;;;8.80;99.90;;;;;;5053492;28;20211;-86
2021/05/20 02:22:35;;;;;;;1.58;1.48;;;8.80;99.90;;;;;;5052723;28;20218;-86
2021/05/20 02:25:01;;;;;;;1.70;1.60;;;8.70;99.90;;;;;;5052325;28;20224;-87
2021/05/20 02:27:28;;;;;;;1.50;1.40;;;8.70;99.90;;;;;;5054060;28;20211;-86
2021/05/20 02:29:55;;;;;;;3.42;1.98;;;8.60;99.90;;;;;;5054602;28;20215;-86
2021/05/20 02:32:22;;;;;;;1.10;1.10;;;8.60;99.90;;;;;;5056876;28;20268;-86
2021/05/20 02:34:48;;;;;;;2.85;2.65;;;8.60;99.90;;;;;;5073152;28;20209;-86
2021/05/20 02:37:14;;;;;;;1.75;1.33;;;8.60;99.90;;;;;;5066073;28;20214;-86
2021/05/20 02:39:40;;;;;;;1.42;1.15;;;8.60;99.90;;;;;;5078236;28;20202;-86
2021/05/20 02:42:07;;;;;;;1.17;1.08;;;8.40;99.90;;;;;;5063914;28;20724;-86
2021/05/20 02:44:34;;;;;;;1.65;1.15;;;8.50;99.90;;;;;;5053489;28;20226;-86
2021/05/20 02:47:01;;;;;;;1.38;1.27;;;8.60;99.90;;;;;;5053259;28;20208;-86
2021/05/20 02:49:27;;;;;;;1.50;1.40;;;8.60;99.90;;;;;;5053044;28;20223;-86
2021/05/20 02:51:53;;;;;;;1.33;1.23;;;8.50;99.90;;;;;;5053016;28;20207;-86
2021/05/20 02:54:19;;;;;;;1.35;1.25;;;8.50;99.90;;;;;;5052946;28;20227;-86
2021/05/20 02:56:46;;;;;;;1.10;1.10;;;8.50;99.90;;;;;;5053127;28;20206;-86
2021/05/20 02:59:12;;;;;;;1.55;1.45;;;8.40;99.90;;;;;;5052460;28;20238;-86
2021/05/20 03:01:42;;;;;;;1.70;1.48;;;8.40;99.90;;;;;;5052723;28;20224;-86
2021/05/20 03:04:09;;;;;;;1.65;1.55;;;8.50;99.90;;;;;;5052483;28;20251;-86
2021/05/20 03:06:35;;;;;;;1.48;1.30;;;8.50;99.90;;;;;;5052861;28;20263;-86
2021/05/20 03:09:02;;;;;;;1.60;0.93;;;8.50;99.90;;;;;;5052473;28;20229;-86
2021/05/20 03:11:28;;;;;;;1.40;1.30;;;8.50;99.90;;;;;;5052701;28;20301;-86
2021/05/20 03:13:55;;;;;;;1.92;1.83;;;8.60;99.90;;;;;;5052861;28;20197;-86
2021/05/20 03:16:21;;;;;;;1.88;1.60;;;8.50;99.90;;;;;;5052643;28;20213;-86
2021/05/20 03:18:48;;;;;;;1.20;1.10;;;8.50;99.90;;;;;;5052444;28;20225;-86
2021/05/20 03:21:14;;;;;;;1.55;1.45;;;8.50;99.90;;;;;;5052711;28;20668;-86
2021/05/20 03:23:41;;;;;;;1.70;1.60;;;8.30;99.90;;;;;;5052395;28;20626;-86
2021/05/20 03:26:07;;;;;;;2.10;1.30;;;8.50;99.90;;;;;;5052258;28;20211;-86
2021/05/20 03:28:33;;;;;;;1.30;1.20;;;8.60;99.90;;;;;;5052488;28;20226;-86
2021/05/20 03:31:00;;;;;;;1.20;0.95;;;8.60;99.90;;;;;;5052140;28;20297;-86
2021/05/20 03:33:26;;;;;;;1.20;1.10;;;8.70;99.90;;;;;;5052024;28;20198;-86
2021/05/20 03:35:56;;;;;;;1.85;1.42;;;8.80;99.90;;;;;;5052094;28;20212;-86
2021/05/20 03:38:22;;;;;;;1.50;1.40;;;8.80;99.90;;;;;;5051770;28;20266;-85
2021/05/20 03:40:48;;;;;;;1.90;1.70;;;8.70;99.90;;;;;;5051987;28;20301;-85
2021/05/20 03:43:15;;;;;;;2.20;1.45;;;8.60;99.90;;;;;;5051810;28;20213;-84
2021/05/20 03:45:41;;;;;;;1.20;1.20;;;8.60;99.90;;;;;;5051522;28;20248;-85
2021/05/20 03:48:08;;;;;;;2.15;1.80;;;8.70;99.90;;;;;;5052052;28;20226;-84
2021/05/20 03:50:35;;;;;;;1.20;1.10;;;8.70;99.90;;;;;;5052143;28;20210;-85
2021/05/20 03:53:02;;;;;;;1.90;1.80;;;8.70;99.90;;;;;;5052047;28;20216;-84
2021/05/20 03:55:29;;;;;;;1.40;1.30;;;8.80;99.90;;;;;;5052305;28;20211;-85
2021/05/20 03:57:55;;;;;;;1.67;1.58;;;8.80;99.90;;;;;;5052071;28;20243;-85
2021/05/20 04:00:21;;;;;;;1.30;1.20;;;8.80;99.90;;;;;;5052613;28;20244;-85
2021/05/20 04:02:54;;;;;;;1.35;1.33;;;8.80;99.90;;;;;;5052227;28;20208;-85
2021/05/20 04:05:20;;;;;;;1.48;1.38;;;8.90;99.90;;;;;;5053194;28;20229;-85
2021/05/20 04:08:04;;;;;;;1.10;1.10;;;9.00;99.90;;;;;;5052814;28;20238;-85
2021/05/20 04:10:39;;;;;;;1.50;1.40;;;9.00;99.90;;;;;;5052484;28;20293;-85
2021/05/20 04:13:06;;;;;;;1.70;1.55;;;9.00;99.90;;;;;;5052168;28;20205;-85
2021/05/20 04:15:37;;;;;;;0.80;0.80;;;8.90;99.90;;;;;;5053667;28;20211;-85
2021/05/20 04:18:04;;;;;;;2.33;1.77;;;9.00;99.90;;;;;;5053236;28;20223;-85
2021/05/20 04:20:30;;;;;;;1.35;1.25;;;9.00;99.90;;;;;;5053372;28;20214;-85
2021/05/20 04:22:57;;;;;;;2.40;1.38;;;9.00;99.90;;;;;;5052657;28;20207;-85
2021/05/20 04:25:24;;;;;;;1.77;1.40;;;8.90;99.90;;;;;;5053282;28;20230;-85
2021/05/20 04:27:51;;;;;;;1.13;0.80;;;8.90;99.90;;;;;;5053469;28;20230;-85
2021/05/20 04:30:24;;;;;;;1.45;1.45;;;9.00;99.90;;;;;;5053777;28;20219;-85
2021/05/20 04:33:00;;;;;;;1.35;1.20;;;9.10;99.90;;;;;;5052050;28;20206;-85
2021/05/20 04:35:28;;;;;;;1.20;1.10;;;9.10;99.90;;;;;;5050400;28;20622;-85
2021/05/20 04:38:03;;;;;;;1.10;1.00;;;9.20;99.90;;;;;;5052372;28;20228;-85
2021/05/20 04:40:29;;;;;;;1.50;1.17;;;9.10;99.90;;;;;;5053561;28;20207;-85
2021/05/20 04:42:57;;;;;;;1.63;1.40;;;9.20;99.90;;;;;;5052834;28;20566;-85
2021/05/20 04:45:23;;;;;;;1.33;1.25;;;9.20;99.90;;;;;;5052765;28;20486;-85
2021/05/20 04:47:50;;;;;;;1.38;1.27;;;9.10;99.90;;;;;;5053341;28;20223;-85
2021/05/20 04:50:18;;;;;;;1.05;1.00;;;9.10;99.90;;;;;;5052950;28;20683;-85
2021/05/20 04:52:45;;;;;;;1.60;1.50;;;9.20;99.90;;;;;;5053183;28;20216;-85
2021/05/20 04:55:12;;;;;;;1.65;1.55;;;9.10;99.90;;;;;;5053912;28;20211;-85
2021/05/20 04:57:39;;;;;;;1.50;1.40;;;9.10;99.90;;;;;;5056050;28;20264;-85
2021/05/20 05:00:10;;;;;;;1.77;1.30;;;9.10;99.90;;;;;;5057312;28;20214;-85
2021/05/20 05:02:36;;;;;;;1.40;1.30;;;9.10;99.90;;;;;;5057190;28;20616;-84
2021/05/20 05:05:07;;;;;;;1.42;1.33;;;9.10;99.90;;;;;;5057588;28;20253;-85
2021/05/20 05:07:33;;;;;;;0.80;0.80;;;9.10;99.90;;;;;;5057131;28;20226;-85
2021/05/20 05:10:01;;;;;;;1.33;1.23;;;9.10;99.90;;;;;;5056319;28;20207;-85
2021/05/20 05:12:34;;;;;;;1.42;1.25;;;9.10;99.90;;;;;;5055713;28;20209;-85
2021/05/20 05:15:02;;;;;;;1.35;1.15;;;9.00;99.90;;;;;;5056483;28;20252;-85
2021/05/20 05:17:29;;;;;;;1.52;1.42;;;9.10;99.90;;;;;;5056959;28;20595;-85
2021/05/20 05:20:02;;;;;;;2.25;1.40;;;9.00;99.90;;;;;;5057268;28;20243;-85
2021/05/20 05:22:28;;;;;;;1.23;1.13;;;9.10;99.90;;;;;;5055718;28;20208;-85
2021/05/20 05:24:55;;;;;;;2.45;1.23;;;9.10;99.90;;;;;;5054683;28;20645;-84
2021/05/20 05:27:22;;;;;;;2.20;1.70;;;9.10;99.90;;;;;;5059352;28;20232;-84
2021/05/20 05:29:48;;;;;;;1.40;1.30;;;9.00;99.90;;;;;;5061799;28;20208;-84
2021/05/20 05:32:15;;;;;;;1.67;1.58;;;9.10;99.90;;;;;;5062351;28;20219;-84
2021/05/20 05:34:42;;;;;;;1.70;1.35;;;9.20;99.90;;;;;;5062881;28;20202;-84
2021/05/20 05:37:08;;;;;;;1.40;1.30;;;9.30;99.90;;;;;;5063089;28;20210;-84
2021/05/20 05:39:35;;;;;;;1.80;1.70;;;9.40;99.90;;;;;;5063665;28;20512;-84
2021/05/20 05:42:01;;;;;;;1.40;1.20;;;9.50;99.90;;;;;;5062956;28;20200;-84
2021/05/20 05:44:27;;;;;;;1.03;1.03;;;9.70;99.90;;;;;;5060979;28;20227;-84
2021/05/20 05:46:54;;;;;;;1.30;1.20;;;9.80;99.90;;;;;;5062718;28;20540;-84
2021/05/20 05:49:23;;;;;;;1.30;1.20;;;10.00;99.90;;;;;;5062226;28;20229;-84
2021/05/20 05:51:53;;;;;;;1.38;1.27;;;10.10;99.90;;;;;;5062999;28;20457;-84
2021/05/20 05:54:19;;;;;;;1.40;1.30;;;10.30;99.90;;;;;;5065533;28;20212;-84
2021/05/20 05:56:45;;;;;;;1.40;1.23;;;10.50;99.90;;;;;;5060532;28;20458;-83
2021/05/20 05:59:12;;;;;;;1.47;1.37;;;10.70;99.90;;;;;;5059841;28;20511;-84
2021/05/20 06:01:39;;;;;;;2.30;1.20;;;10.80;99.90;;;;;;5061612;28;20456;-84
2021/05/20 06:04:06;;;;;;;1.03;1.03;;;10.80;99.90;;;;;;5079378;28;20498;-85
2021/05/20 06:06:33;;;;;;;2.63;1.17;;;11.00;99.90;;;;;;5070932;28;20451;-84
2021/05/20 06:09:01;;;;;;;1.80;1.23;;;11.10;99.90;;;;;;5054467;28;20463;-84
2021/05/20 06:11:27;;;;;;;2.60;1.00;;;11.30;99.90;;;;;;5053640;28;21237;-85
2021/05/20 06:13:55;;;;;;;1.10;1.00;;;11.40;99.90;;;;;;5056131;28;20861;-84
2021/05/20 06:16:21;;;;;;;1.30;1.20;;;11.50;99.90;;;;;;5055843;28;20459;-84
2021/05/20 06:18:47;;;;;;;1.90;1.80;;;11.50;99.90;;;;;;5055099;28;20467;-84
2021/05/20 06:21:13;;;;;;;1.10;1.00;;;11.60;99.90;;;;;;5054847;28;20464;-84
2021/05/20 06:23:40;;;;;;;0.97;0.97;;;11.50;99.90;;;;;;5054504;28;20483;-85
2021/05/20 06:26:07;;;;;;;3.80;1.00;;;11.40;99.90;;;;;;5049122;28;20455;-85
2021/05/20 06:28:47;;;;;;;0.90;0.80;;;11.50;99.90;;;;;;5057063;28;20505;-88
2021/05/20 06:31:15;;;;;;;1.83;1.10;;;11.60;99.90;;;;;;5057845;28;20543;-87
2021/05/20 06:33:41;;;;;;;0.80;0.80;;;11.60;99.90;;;;;;5055720;28;20455;-89
2021/05/20 06:36:08;;;;;;;1.00;1.00;;;11.60;99.90;;;;;;5054908;28;20460;-89
2021/05/20 06:38:34;;;;;;;1.27;1.13;;;11.50;99.90;;;;;;5055060;28;20513;-88
2021/05/20 06:41:22;;;;;;;1.50;1.40;;;11.60;99.90;;;;;;5052792;28;20462;-90
2021/05/20 06:43:49;;;;;;;1.03;1.03;;;11.60;99.90;;;;;;5033855;28;20519;-89
2021/05/20 06:46:15;;;;;;;2.40;1.20;;;11.70;99.90;;;;;;5033615;28;20999;-89
2021/05/20 06:48:42;;;;;;;1.20;1.20;;;11.90;99.90;;;;;;5033298;28;20484;-88
2021/05/20 06:51:08;;;;;;;0.93;0.93;;;12.00;99.90;;;;;;5042223;28;20451;-86
2021/05/20 06:53:38;;;;;;;1.20;1.20;;;12.00;99.90;;;;;;5072953;28;20455;-90
2021/05/20 06:56:08;;;;;;;1.20;1.13;;;12.00;99.90;;;;;;5073338;28;20459;-90
2021/05/20 07:01:51;;;;;;;1.53;1.20;;;11.80;99.90;;;;;;5035043;28;20513;-84
2021/05/20 07:04:18;;;;;;;1.40;1.30;;;11.80;99.90;;;;;;5056995;28;20582;-86
2021/05/20 07:06:47;;;;;;;2.10;1.33;;;12.00;99.90;;;;;;5101119;28;20891;-85
2021/05/20 07:15:30;;;;;;;1.77;1.67;;;11.80;99.90;;;;;;5072059;28;20449;-86
2021/05/20 07:17:57;;;;;;;2.03;1.77;;;11.70;99.90;;;;;;5105062;28;20519;-85
2021/05/20 07:20:23;;;;;;;1.27;1.20;;;11.60;99.90;;;;;;5103880;28;20451;-85
2021/05/20 07:22:50;;;;;;;1.83;1.60;;;11.80;99.90;;;;;;5105171;28;21095;-83
2021/05/20 07:25:16;;;;;;;1.33;1.23;;;12.00;99.90;;;;;;5086977;28;20491;-84
2021/05/20 07:27:42;;;;;;;3.90;1.40;;;12.20;99.90;;;;;;5083862;28;20450;-83
2021/05/20 07:30:11;;;;;;;2.17;1.33;;;12.50;99.90;;;;;;5084370;28;20465;-82
2021/05/20 07:32:40;;;;;;;1.70;1.10;;;12.80;99.90;;;;;;5083636;28;20909;-81
2021/05/20 07:35:08;;;;;;;2.40;1.90;;;13.20;99.90;;;;;;5084768;28;20521;-84
2021/05/20 07:37:36;;;;;;;1.57;1.47;;;13.30;99.90;;;;;;5084048;28;20825;-85
2021/05/20 07:40:04;;;;;;;1.47;1.37;;;13.40;99.90;;;;;;5084879;28;20465;-84
2021/05/20 07:42:30;;;;;;;1.20;1.20;;;13.20;99.90;;;;;;5084407;28;20447;-84
2021/05/20 07:44:56;;;;;;;1.17;1.07;;;12.90;99.90;;;;;;5084635;28;20490;-84
2021/05/20 07:47:26;;;;;;;1.17;1.07;;;12.90;99.90;;;;;;5084516;28;20523;-85
2021/05/20 07:49:52;;;;;;;1.20;1.10;;;12.80;99.90;;;;;;5084093;28;20831;-84
2021/05/20 07:52:19;;;;;;;1.47;1.37;;;12.80;99.90;;;;;;5085414;28;20445;-84
2021/05/20 07:54:46;;;;;;;1.37;1.10;;;12.60;99.90;;;;;;5085470;28;20449;-82
2021/05/20 07:57:12;;;;;;;1.57;1.47;;;12.60;99.90;;;;;;5084750;28;20459;-84
2021/05/20 07:59:38;;;;;;;1.10;1.00;;;12.80;99.90;;;;;;5085438;28;20484;-84
2021/05/20 08:02:10;;;;;;;0.93;0.93;;;12.90;99.90;;;;;;5085123;28;20458;-84
2021/05/20 08:04:38;;;;;;;1.10;1.10;;;13.00;99.80;;;;;;5085602;28;20486;-83
2021/05/20 08:07:10;;;;;;;1.17;1.17;;;12.80;99.70;;;;;;5084573;28;20438;-84
2021/05/20 08:09:38;;;;;;;1.17;1.07;;;12.80;99.90;;;;;;5083533;28;20475;-83
2021/05/20 08:12:07;;;;;;;1.30;1.00;;;12.90;99.90;;;;;;5085493;28;20461;-81
2021/05/20 08:14:33;;;;;;;2.37;1.40;;;13.00;99.80;;;;;;5085294;28;20446;-84
2021/05/20 08:17:00;;;;;;;1.00;1.00;;;13.20;99.30;;;;;;5085755;28;20451;-82
2021/05/20 08:19:26;;;;;;;0.80;0.80;;;13.20;99.80;;;;;;5084835;28;20502;-82
2021/05/20 08:21:52;;;;;;;0.90;0.90;;;13.30;99.90;;;;;;5085345;28;20460;-84
2021/05/20 08:24:19;;;;;;;1.10;1.00;;;13.60;99.90;;;;;;5084755;28;20487;-83
2021/05/20 08:26:48;;;;;;;2.20;1.37;;;13.50;99.40;;;;;;5085327;28;20458;-84
2021/05/20 08:29:15;;;;;;;1.10;1.10;;;13.50;99.30;;;;;;5084937;28;20475;-80
2021/05/20 08:31:41;;;;;;;1.27;1.17;;;13.30;98.80;;;;;;5086121;28;20447;-82
2021/05/20 08:34:07;;;;;;;1.43;0.80;;;13.40;99.10;;;;;;5088241;28;20501;-84
2021/05/20 08:36:34;;;;;;;0.97;0.87;;;13.50;99.10;;;;;;5088475;28;20507;-84
2021/05/20 08:39:00;;;;;;;0.60;0.60;;;13.60;98.80;;;;;;5088829;28;20840;-84
2021/05/20 08:41:28;;;;;;;0.90;0.90;;;13.60;98.10;;;;;;5087962;28;20467;-85
2021/05/20 08:43:55;;;;;;;0.80;0.77;;;13.70;98.00;;;;;;5088200;28;20550;-84
2021/05/20 08:46:22;;;;;;;1.33;0.80;;;13.80;97.90;;;;;;5088349;28;20450;-84
2021/05/20 08:48:51;;;;;;;0.70;0.70;;;14.00;98.10;;;;;;5087889;28;20463;-82
2021/05/20 08:51:23;;;;;;;1.70;0.83;;;14.30;97.30;;;;;;5086437;28;20462;-82
2021/05/20 08:53:49;;;;;;;1.73;0.80;;;14.50;96.90;;;;;;5088209;28;20459;-82
2021/05/20 08:56:17;;;;;;;0.70;0.70;;;14.70;95.80;;;;;;5087836;28;20512;-84
2021/05/20 08:58:47;;;;;;;1.00;0.80;;;14.70;95.60;;;;;;5092195;28;20849;-81
2021/05/20 09:01:35;;;;;;;1.03;0.93;;;14.90;95.60;;;;;;5109384;28;20455;-83
2021/05/20 09:04:02;;;;;;;1.10;0.93;;;15.00;95.40;;;;;;5109145;28;20503;-84
2021/05/20 09:06:40;;;;;;;0.60;0.60;;;14.80;95.60;;;;;;5107915;28;20478;-84
2021/05/20 09:09:08;;;;;;;0.90;0.90;;;14.70;95.70;;;;;;5107350;28;20470;-83
2021/05/20 09:11:37;;;;;;;1.17;1.07;;;14.30;96.00;;;;;;5107171;28;20482;-85
2021/05/20 09:14:06;;;;;;;0.80;0.80;;;14.10;96.40;;;;;;5106579;28;20447;-80
2021/05/20 09:16:36;;;;;;;0.77;0.53;;;14.00;96.10;;;;;;5107073;28;20454;-84
2021/05/20 09:19:03;;;;;;;1.00;0.97;;;13.80;95.80;;;;;;5108126;28;20470;-84
2021/05/20 09:21:30;;;;;;;0.97;0.60;;;13.60;95.90;;;;;;5102526;28;20854;-82
2021/05/20 09:23:56;;;;;;;1.43;0.83;;;13.50;95.90;;;;;;5095737;28;20895;-83
2021/05/20 09:26:34;;;;;;;1.23;1.13;;;13.60;96.30;;;;;;5087911;28;20447;-83
2021/05/20 09:29:08;;;;;;;0.60;0.60;;;13.60;96.70;;;;;;5087491;28;20474;-83
2021/05/20 09:31:43;;;;;;;0.97;0.80;;;13.80;96.10;;;;;;5085816;28;20465;-84
2021/05/20 09:34:13;;;;;;;0.70;0.70;;;13.90;96.70;;;;;;5088105;28;20453;-84
2021/05/20 09:36:47;;;;;;;1.23;1.10;;;14.10;96.60;;;;;;5102963;28;20446;-84
2021/05/20 09:39:14;;;;;;;0.73;0.73;;;14.40;95.60;;;;;;5102807;28;20467;-85
2021/05/20 09:41:41;;;;;;;0.90;0.90;;;14.60;95.60;;;;;;5101992;28;20932;-84
2021/05/20 09:44:29;;;;;;;1.10;1.00;;;14.90;94.50;;;;;;5102633;28;20482;-84
2021/05/20 09:46:56;;;;;;;1.17;1.03;;;15.10;93.90;;;;;;5103958;28;20520;-85
2021/05/20 09:49:25;;;;;;;1.33;0.80;;;14.90;94.00;;;;;;5101939;28;20469;-83
2021/05/20 09:52:21;;;;;;;1.20;1.07;;;15.00;94.30;;;;;;5104118;28;20939;-85
2021/05/20 09:54:50;;;;;;;1.10;1.10;;;14.80;94.30;;;;;;5099434;28;21228;-84
2021/05/20 09:57:31;;;;;;;0.87;0.67;;;14.60;94.50;;;;;;5088726;28;20486;-83
2021/05/20 10:00:04;;;;;;;1.17;1.17;;;14.60;94.60;;;;;;5090016;28;20565;-83
2021/05/20 10:02:31;;;;;;;0.93;0.93;;;14.60;94.30;;;;;;5100130;28;20513;-86
2021/05/20 10:05:26;;;;;;;1.17;1.03;;;14.60;94.30;;;;;;5098753;28;20856;-86
2021/05/20 10:07:59;;;;;;;0.70;0.70;;;14.50;94.30;;;;;;5088943;28;20448;-87
2021/05/20 10:10:27;;;;;;;1.17;1.00;;;14.50;94.80;;;;;;5088572;28;20446;-85
2021/05/20 10:12:54;;;;;;;0.83;0.83;;;14.70;94.70;;;;;;5098893;28;20465;-84
2021/05/20 10:15:23;;;;;;;1.03;1.00;;;14.80;94.10;;;;;;5089898;28;20448;-86
2021/05/20 10:17:53;;;;;;;0.70;0.70;;;14.90;93.40;;;;;;5097524;28;20533;-84
2021/05/20 10:20:35;;;;;;;4.63;0.80;;;15.20;93.80;;;;;;5097869;28;20482;-86
2021/05/20 10:23:29;;;;;;;0.60;0.60;;;15.50;92.40;;;;;;5100205;28;20454;-85
2021/05/20 10:26:10;;;;;;;0.63;0.63;;;15.80;91.90;;;;;;5096887;28;20482;-83
2021/05/20 10:28:37;;;;;;;0.77;0.70;;;16.00;91.30;;;;;;5097511;28;20470;-84
2021/05/20 10:31:03;;;;;;;0.80;0.80;;;16.20;90.80;;;;;;5098587;28;20991;-84
2021/05/20 10:33:31;;;;;;;0.73;0.73;;;16.20;90.70;;;;;;5098379;28;20463;-84
2021/05/20 10:36:00;;;;;;;0.90;0.90;;;16.20;90.80;;;;;;5099225;28;20450;-84
2021/05/20 10:38:40;;;;;;;0.80;0.67;;;16.20;91.00;;;;;;5098796;28;20475;-87
2021/05/20 10:41:11;;;;;;;0.80;0.80;;;16.10;90.80;;;;;;5082767;28;20462;-79
2021/05/20 10:43:38;;;;;;;0.70;0.70;;;16.20;90.00;;;;;;5080148;28;20453;-84
2021/05/20 10:46:08;;;;;;;0.90;0.60;;;16.10;89.80;;;;;;5097811;28;20479;-85
2021/05/20 10:48:37;;;;;;;0.70;0.50;;;16.20;89.60;;;;;;5097977;28;20983;-84
2021/05/20 10:51:06;;;;;;;0.50;0.50;;;16.20;89.40;;;;;;5087515;28;20446;-86
2021/05/20 10:53:47;;;;;;;0.47;0.47;;;16.30;89.70;;;;;;5095872;28;20447;-84
2021/05/20 10:56:50;;;;;;;0.50;0.50;;;16.30;87.10;;;;;;5098087;28;20861;-82
2021/05/20 10:59:40;;;;;;;0.90;0.70;;;16.20;87.70;;;;;;5098477;28;20483;-84
2021/05/20 11:02:17;;;;;;;1.47;0.50;;;16.20;89.50;;;;;;5098137;28;20456;-86
2021/05/20 11:04:45;;;;;;;0.80;0.70;;;16.50;87.70;;;;;;5080046;28;20480;-86
2021/05/20 11:07:12;;;;;;;0.80;0.70;;;16.70;88.30;;;;;;5098592;28;20548;-84
2021/05/20 11:09:46;;;;;;;0.53;0.53;;;17.20;86.50;;;;;;5097510;28;20474;-85
2021/05/20 11:12:13;;;;;;;1.90;1.20;;;17.90;89.50;;;;;;5096740;28;20461;-87
2021/05/20 11:14:44;;;;;;;1.20;0.60;;;18.80;84.20;;;;;;5084293;28;20477;-86
2021/05/20 11:17:35;;;;;;;0.63;0.63;;;19.90;85.10;;;;;;5096103;28;20457;-79
2021/05/20 11:20:51;;;;;;;0.50;0.50;;;21.20;77.10;;;;;;5071071;28;20568;-81
2021/05/20 11:23:32;;;;;;;2.30;0.60;;;21.80;68.30;;;;;;5093889;28;20459;-86
2021/05/20 11:26:20;;;;;;;0.70;0.70;;;22.00;68.40;;;;;;5082380;28;20520;-84
2021/05/20 11:29:08;;;;;;;0.40;0.40;;;22.10;65.70;;;;;;5089181;28;20489;-86
2021/05/20 11:31:35;;;;;;;0.57;0.57;;;21.90;64.50;;;;;;5079268;28;20520;-84
2021/05/20 11:34:23;;;;;;;0.60;0.60;;;21.50;62.40;;;;;;5093713;28;20479;-80
2021/05/20 11:36:51;;;;;;;5.00;0.70;;;21.00;64.50;;;;;;5085022;28;20457;-85
2021/05/20 11:39:19;;;;;;;1.53;0.63;;;20.40;65.50;;;;;;5097487;28;20559;-85
2021/05/20 11:41:46;;;;;;;1.07;0.97;;;19.80;67.40;;;;;;5096862;28;20450;-85
2021/05/20 11:44:15;;;;;;;0.70;0.70;;;19.60;68.70;;;;;;5082056;28;20490;-83
2021/05/20 11:46:45;;;;;;;0.77;0.77;;;19.50;67.90;;;;;;5093982;28;20516;-85
2021/05/20 11:49:21;;;;;;;1.90;0.60;;;19.20;68.70;;;;;;5093529;28;21022;-86
2021/05/20 11:51:57;;;;;;;0.87;0.70;;;18.80;67.40;;;;;;5079126;28;20528;-86
2021/05/20 11:54:26;;;;;;;0.50;0.50;;;18.80;69.00;;;;;;5090138;28;20454;-86
2021/05/20 11:56:55;;;;;;;0.70;0.70;;;18.80;69.30;;;;;;5096637;28;20444;-84
2021/05/20 11:59:56;;;;;;;0.60;0.60;;;18.80;69.60;;;;;;5094428;28;20475;-85
2021/05/20 12:02:28;;;;;;;0.43;0.40;;;18.90;68.20;;;;;;5089139;28;20515;-84
2021/05/20 12:04:58;;;;;;;0.60;0.60;;;19.60;68.30;;;;;;5077045;28;20483;-83
2021/05/20 12:07:27;;;;;;;0.50;0.50;;;20.30;65.60;;;;;;5080641;28;20477;-82
2021/05/20 12:09:54;;;;;;;0.57;0.57;;;21.20;64.40;;;;;;5097380;28;20953;-84
2021/05/20 12:12:21;;;;;;;0.90;0.50;;;22.20;64.00;;;;;;5080058;28;20802;-83
2021/05/20 12:14:48;;;;;;;1.13;0.93;;;23.00;59.60;;;;;;5093460;28;20474;-81
2021/05/20 12:17:17;;;;;;;0.53;0.50;;;23.40;59.40;;;;;;5103754;28;20897;-83
2021/05/20 12:19:46;;;;;;;0.67;0.67;;;23.40;58.10;;;;;;5100763;28;20460;-81
2021/05/20 12:22:24;;;;;;;0.60;0.60;;;23.20;57.90;;;;;;5109594;28;20476;-78
2021/05/20 12:24:53;;;;;;;0.53;0.53;;;22.90;58.10;;;;;;5112255;28;20536;-78
2021/05/20 12:27:21;;;;;;;0.67;0.67;;;22.80;59.30;;;;;;5107767;28;20454;-84
2021/05/20 12:29:50;;;;;;;2.20;0.60;;;22.40;59.30;;;;;;5089934;28;20472;-80
2021/05/20 12:32:39;;;;;;;1.07;0.73;;;22.20;59.90;;;;;;5100293;28;20451;-85
2021/05/20 12:35:11;;;;;;;0.57;0.57;;;21.90;58.80;;;;;;5077617;28;20487;-80
2021/05/20 12:37:42;;;;;;;1.20;0.80;;;21.70;59.90;;;;;;5084570;28;21096;-83
2021/05/20 12:40:19;;;;;;;0.70;0.60;;;21.30;59.90;;;;;;5101547;28;20450;-83
2021/05/20 12:42:52;;;;;;;1.00;0.60;;;21.00;60.80;;;;;;5089153;28;20841;-83
2021/05/20 12:45:27;;;;;;;0.50;0.50;;;20.40;60.80;;;;;;5096679;28;20496;-82
2021/05/20 12:47:54;;;;;;;2.30;0.80;;;19.90;64.60;;;;;;5080808;28;20458;-83
2021/05/20 12:50:28;;;;;;;0.90;0.70;;;19.50;66.90;;;;;;5084536;28;20449;-82
2021/05/20 12:52:56;;;;;;;0.80;0.57;;;19.10;69.50;;;;;;5101282;28;21040;-86
2021/05/20 12:55:34;;;;;;;1.40;0.93;;;18.50;72.60;;;;;;5102412;28;20452;-85
2021/05/20 12:58:01;;;;;;;1.07;0.60;;;18.00;75.60;;;;;;5086015;28;20490;-84
2021/05/20 13:00:29;;;;;;;1.27;0.50;;;17.80;78.60;;;;;;5095654;28;20602;-81
2021/05/20 13:03:00;;;;;;;0.80;0.80;;;17.80;78.00;;;;;;5094213;28;20530;-83
2021/05/20 13:05:28;;;;;;;0.60;0.60;;;18.10;77.90;;;;;;5077417;28;20485;-86
2021/05/20 13:07:55;;;;;;;0.80;0.80;;;18.50;76.20;;;;;;5078085;28;20450;-81
2021/05/20 13:10:34;;;;;;;4.93;0.83;;;18.90;77.30;;;;;;5090093;28;20457;-81
2021/05/20 13:13:00;;;;;;;0.97;0.97;;;19.20;73.80;;;;;;5094619;28;20454;-83
2021/05/20 13:15:44;;;;;;;0.83;0.80;;;19.30;72.90;;;;;;5093774;28;20445;-84
2021/05/20 13:18:32;;;;;;;1.20;0.90;;;19.30;73.10;;;;;;5084284;28;20472;-85
2021/05/20 13:23:54;;;;;;;0.70;0.70;;;19.00;75.00;;;;;;5081104;28;20848;-79
2021/05/20 13:26:21;;;;;;;0.90;0.90;;;19.00;75.30;;;;;;5095843;28;20493;-83
2021/05/20 13:28:50;;;;;;;0.87;0.87;;;19.40;75.00;;;;;;5097259;28;20470;-83
2021/05/20 13:31:19;;;;;;;0.70;0.70;;;20.00;71.90;;;;;;5085740;28;20460;-84
2021/05/20 13:33:47;;;;;;;0.70;0.70;;;20.80;72.30;;;;;;5092300;28;20441;-84
2021/05/20 13:36:13;;;;;;;1.23;0.60;;;21.70;70.30;;;;;;5095714;28;20457;-82
2021/05/20 13:38:40;;;;;;;0.50;0.50;;;22.20;66.40;;;;;;5095717;28;20474;-81
2021/05/20 13:41:06;;;;;;;0.90;0.57;;;22.50;61.90;;;;;;5091474;28;20456;-82
2021/05/20 13:43:34;;;;;;;0.40;0.40;;;22.60;61.40;;;;;;5075641;28;20461;-81
2021/05/20 13:46:00;;;;;;;0.47;0.47;;;22.50;59.00;;;;;;5087716;28;20496;-81
2021/05/20 13:48:28;;;;;;;0.50;0.50;;;22.00;58.30;;;;;;5096102;28;20473;-82
2021/05/20 13:50:55;;;;;;;0.60;0.50;;;21.80;57.30;;;;;;5079347;28;20842;-86
2021/05/20 13:53:21;;;;;;;1.23;1.13;;;21.70;58.30;;;;;;5093450;28;20452;-82
2021/05/20 13:55:47;;;;;;;0.93;0.60;;;21.80;59.40;;;;;;5096176;28;20444;-81